sensor_id;sensor_type;location;lat;lon;timestamp;P1;durP1;ratioP1;P2;durP2;ratioP2
56075;SDS011;41951;49.022;12.066;2022-09-01T00:02:11;9.50;;;6.70;;
56075;SDS011;41951;49.022;12.066;2022-09-01T00:04:39;8.70;;;6.95;;
56075;SDS011;41951;49.022;12.066;2022-09-01T00:07:08;10.15;;;7.55;;
56075;SDS011;41951;49.022;12.066;2022-09-01T00:09:34;9.07;;;6.93;;
56075;SDS011;41951;49.022;12.066;2022-09-01T00:12:01;7.35;;;6.28;;
56075;SDS011;41951;49.022;12.066;2022-09-01T00:14:30;9.77;;;7.10;;
56075;SDS011;41951;49.022;12.066;2022-09-01T00:16:58;6.15;;;5.00;;
56075;SDS011;41951;49.022;12.066;2022-09-01T00:19:25;8.30;;;7.22;;
56075;SDS011;41951;49.022;12.066;2022-09-01T00:21:51;9.05;;;7.13;;
56075;SDS011;41951;49.022;12.066;2022-09-01T00:24:17;9.43;;;6.82;;
56075;SDS011;41951;49.022;12.066;2022-09-01T00:26:43;10.63;;;7.22;;
56075;SDS011;41951;49.022;12.066;2022-09-01T00:29:09;8.60;;;7.07;;
56075;SDS011;41951;49.022;12.066;2022-09-01T00:31:35;7.50;;;6.68;;
56075;SDS011;41951;49.022;12.066;2022-09-01T00:34:00;9.07;;;6.68;;
56075;SDS011;41951;49.022;12.066;2022-09-01T00:36:26;8.63;;;7.28;;
56075;SDS011;41951;49.022;12.066;2022-09-01T00:38:52;9.77;;;7.13;;
56075;SDS011;41951;49.022;12.066;2022-09-01T00:41:20;9.05;;;6.60;;
56075;SDS011;41951;49.022;12.066;2022-09-01T00:43:50;11.03;;;7.10;;
56075;SDS011;41951;49.022;12.066;2022-09-01T00:46:39;10.25;;;7.07;;
56075;SDS011;41951;49.022;12.066;2022-09-01T00:52:18;8.25;;;6.78;;
56075;SDS011;41951;49.022;12.066;2022-09-01T00:54:48;9.82;;;7.15;;
56075;SDS011;41951;49.022;12.066;2022-09-01T00:57:17;9.32;;;7.22;;
56075;SDS011;41951;49.022;12.066;2022-09-01T00:59:48;9.73;;;6.97;;
56075;SDS011;41951;49.022;12.066;2022-09-01T01:02:35;10.20;;;7.13;;
56075;SDS011;41951;49.022;12.066;2022-09-01T01:05:03;10.95;;;7.30;;
56075;SDS011;41951;49.022;12.066;2022-09-01T01:07:30;8.82;;;6.78;;
56075;SDS011;41951;49.022;12.066;2022-09-01T01:10:03;10.73;;;7.30;;
56075;SDS011;41951;49.022;12.066;2022-09-01T01:12:32;8.02;;;7.20;;
56075;SDS011;41951;49.022;12.066;2022-09-01T01:15:04;11.20;;;7.15;;
56075;SDS011;41951;49.022;12.066;2022-09-01T01:17:32;13.02;;;7.15;;
56075;SDS011;41951;49.022;12.066;2022-09-01T01:19:57;10.02;;;7.10;;
56075;SDS011;41951;49.022;12.066;2022-09-01T01:25:48;9.10;;;6.80;;
56075;SDS011;41951;49.022;12.066;2022-09-01T17:03:15;6.28;;;2.75;;
56075;SDS011;41951;49.022;12.066;2022-09-01T17:06:00;12.57;;;7.97;;
56075;SDS011;41951;49.022;12.066;2022-09-01T17:08:32;4.88;;;2.90;;
56075;SDS011;41951;49.022;12.066;2022-09-01T17:11:15;7.80;;;2.70;;
56075;SDS011;41951;49.022;12.066;2022-09-01T17:13:43;3.88;;;2.03;;
56075;SDS011;41951;49.022;12.066;2022-09-01T17:16:17;4.45;;;2.28;;
56075;SDS011;41951;49.022;12.066;2022-09-01T17:19:04;4.00;;;2.20;;
56075;SDS011;41951;49.022;12.066;2022-09-01T17:24:07;3.65;;;2.00;;
56075;SDS011;41951;49.022;12.066;2022-09-01T17:26:43;4.82;;;2.38;;
56075;SDS011;41951;49.022;12.066;2022-09-01T17:34:29;5.10;;;1.90;;
56075;SDS011;41951;49.022;12.066;2022-09-01T17:39:51;5.40;;;2.03;;
56075;SDS011;41951;49.022;12.066;2022-09-01T17:42:50;3.58;;;2.13;;
56075;SDS011;41951;49.022;12.066;2022-09-01T17:45:47;3.28;;;1.80;;
56075;SDS011;41951;49.022;12.066;2022-09-01T17:48:39;4.55;;;2.22;;
56075;SDS011;41951;49.022;12.066;2022-09-01T17:51:18;4.05;;;1.73;;
56075;SDS011;41951;49.022;12.066;2022-09-01T17:56:50;2.75;;;1.48;;
56075;SDS011;41951;49.022;12.066;2022-09-01T18:05:16;4.35;;;2.65;;
56075;SDS011;41951;49.022;12.066;2022-09-01T18:10:16;7.05;;;4.45;;
56075;SDS011;41951;49.022;12.066;2022-09-01T18:13:02;4.45;;;2.50;;
56075;SDS011;41951;49.022;12.066;2022-09-01T18:15:35;5.55;;;2.08;;
56075;SDS011;41951;49.022;12.066;2022-09-01T18:18:14;3.40;;;1.70;;
56075;SDS011;41951;49.022;12.066;2022-09-01T18:20:49;6.47;;;1.95;;
56075;SDS011;41951;49.022;12.066;2022-09-01T18:23:21;3.08;;;1.90;;
56075;SDS011;41951;49.022;12.066;2022-09-01T18:25:53;4.13;;;1.80;;
56075;SDS011;41951;49.022;12.066;2022-09-01T18:28:21;3.28;;;1.67;;
56075;SDS011;41951;49.022;12.066;2022-09-01T18:30:51;4.47;;;1.90;;
56075;SDS011;41951;49.022;12.066;2022-09-01T18:38:49;3.03;;;1.90;;
56075;SDS011;41951;49.022;12.066;2022-09-01T18:42:07;4.63;;;1.67;;
56075;SDS011;41951;49.022;12.066;2022-09-01T18:44:35;3.75;;;1.67;;
56075;SDS011;41951;49.022;12.066;2022-09-01T18:47:12;3.95;;;1.58;;
56075;SDS011;41951;49.022;12.066;2022-09-01T18:57:43;3.45;;;1.70;;
56075;SDS011;41951;49.022;12.066;2022-09-01T19:00:16;4.85;;;1.73;;
56075;SDS011;41951;49.022;12.066;2022-09-01T19:03:01;3.22;;;1.70;;
56075;SDS011;41951;49.022;12.066;2022-09-01T19:08:56;3.58;;;1.90;;
56075;SDS011;41951;49.022;12.066;2022-09-01T19:11:46;4.57;;;1.73;;
56075;SDS011;41951;49.022;12.066;2022-09-01T19:22:39;3.60;;;1.90;;
56075;SDS011;41951;49.022;12.066;2022-09-01T19:25:15;3.47;;;1.90;;
56075;SDS011;41951;49.022;12.066;2022-09-01T19:28:12;5.18;;;1.80;;
56075;SDS011;41951;49.022;12.066;2022-09-01T19:30:51;4.07;;;1.90;;
56075;SDS011;41951;49.022;12.066;2022-09-01T19:33:19;6.22;;;2.20;;
56075;SDS011;41951;49.022;12.066;2022-09-01T19:35:53;4.47;;;1.77;;
56075;SDS011;41951;49.022;12.066;2022-09-01T19:38:22;6.10;;;2.00;;
56075;SDS011;41951;49.022;12.066;2022-09-01T19:40:52;3.60;;;2.03;;
56075;SDS011;41951;49.022;12.066;2022-09-01T19:43:33;4.95;;;1.90;;
56075;SDS011;41951;49.022;12.066;2022-09-01T19:51:30;4.35;;;1.92;;
56075;SDS011;41951;49.022;12.066;2022-09-01T19:54:05;4.88;;;2.15;;
56075;SDS011;41951;49.022;12.066;2022-09-01T19:56:34;4.93;;;1.83;;
56075;SDS011;41951;49.022;12.066;2022-09-01T20:02:10;5.40;;;2.22;;
56075;SDS011;41951;49.022;12.066;2022-09-01T20:10:01;3.95;;;2.03;;
56075;SDS011;41951;49.022;12.066;2022-09-01T20:15:51;4.50;;;2.00;;
56075;SDS011;41951;49.022;12.066;2022-09-01T20:18:20;5.07;;;2.00;;
56075;SDS011;41951;49.022;12.066;2022-09-01T20:20:52;3.85;;;1.95;;
56075;SDS011;41951;49.022;12.066;2022-09-01T20:23:32;4.65;;;1.90;;
56075;SDS011;41951;49.022;12.066;2022-09-01T20:26:03;6.85;;;2.05;;
56075;SDS011;41951;49.022;12.066;2022-09-01T20:28:43;4.63;;;2.17;;
56075;SDS011;41951;49.022;12.066;2022-09-01T20:31:35;4.72;;;2.25;;
56075;SDS011;41951;49.022;12.066;2022-09-01T20:34:12;3.75;;;2.08;;
56075;SDS011;41951;49.022;12.066;2022-09-01T20:36:47;6.32;;;2.33;;
56075;SDS011;41951;49.022;12.066;2022-09-01T20:47:51;5.05;;;2.85;;
56075;SDS011;41951;49.022;12.066;2022-09-01T20:53:16;5.47;;;2.90;;
56075;SDS011;41951;49.022;12.066;2022-09-01T20:58:27;3.60;;;2.50;;
56075;SDS011;41951;49.022;12.066;2022-09-01T21:11:50;4.32;;;2.60;;
56075;SDS011;41951;49.022;12.066;2022-09-01T21:17:28;3.67;;;2.50;;
56075;SDS011;41951;49.022;12.066;2022-09-01T21:22:35;6.60;;;2.58;;
56075;SDS011;41951;49.022;12.066;2022-09-01T21:25:00;6.30;;;2.72;;
56075;SDS011;41951;49.022;12.066;2022-09-01T21:27:27;12.13;;;3.05;;
56075;SDS011;41951;49.022;12.066;2022-09-01T21:30:05;4.57;;;2.78;;
56075;SDS011;41951;49.022;12.066;2022-09-01T21:32:32;4.95;;;2.78;;
56075;SDS011;41951;49.022;12.066;2022-09-01T21:34:58;4.10;;;2.70;;
56075;SDS011;41951;49.022;12.066;2022-09-01T21:37:25;8.55;;;4.53;;
56075;SDS011;41951;49.022;12.066;2022-09-01T21:39:52;4.63;;;2.65;;
56075;SDS011;41951;49.022;12.066;2022-09-01T21:42:20;5.15;;;3.30;;
56075;SDS011;41951;49.022;12.066;2022-09-01T21:44:49;10.48;;;3.50;;
56075;SDS011;41951;49.022;12.066;2022-09-01T21:47:15;6.15;;;3.35;;
56075;SDS011;41951;49.022;12.066;2022-09-01T21:49:41;7.32;;;3.80;;
56075;SDS011;41951;49.022;12.066;2022-09-01T21:52:07;6.55;;;3.45;;
56075;SDS011;41951;49.022;12.066;2022-09-01T21:54:33;5.78;;;3.65;;
56075;SDS011;41951;49.022;12.066;2022-09-01T21:56:59;8.73;;;3.97;;
56075;SDS011;41951;49.022;12.066;2022-09-01T21:59:25;6.65;;;3.55;;
56075;SDS011;41951;49.022;12.066;2022-09-01T22:01:51;6.70;;;3.70;;
56075;SDS011;41951;49.022;12.066;2022-09-01T22:04:16;5.90;;;3.65;;
56075;SDS011;41951;49.022;12.066;2022-09-01T22:06:43;4.88;;;3.28;;
56075;SDS011;41951;49.022;12.066;2022-09-01T22:09:09;9.23;;;3.40;;
56075;SDS011;41951;49.022;12.066;2022-09-01T22:11:35;6.68;;;3.20;;
56075;SDS011;41951;49.022;12.066;2022-09-01T22:14:02;7.85;;;3.38;;
56075;SDS011;41951;49.022;12.066;2022-09-01T22:16:29;5.30;;;3.42;;
56075;SDS011;41951;49.022;12.066;2022-09-01T22:18:55;3.97;;;3.08;;
56075;SDS011;41951;49.022;12.066;2022-09-01T22:21:21;6.32;;;2.90;;
56075;SDS011;41951;49.022;12.066;2022-09-01T22:23:47;6.03;;;2.90;;
56075;SDS011;41951;49.022;12.066;2022-09-01T22:26:20;9.23;;;3.13;;
56075;SDS011;41951;49.022;12.066;2022-09-01T22:28:48;4.78;;;2.70;;
56075;SDS011;41951;49.022;12.066;2022-09-01T22:31:15;5.28;;;3.03;;
56075;SDS011;41951;49.022;12.066;2022-09-01T22:33:42;6.63;;;2.70;;
56075;SDS011;41951;49.022;12.066;2022-09-01T22:36:08;4.78;;;2.78;;
56075;SDS011;41951;49.022;12.066;2022-09-01T22:38:34;4.20;;;2.70;;
56075;SDS011;41951;49.022;12.066;2022-09-01T22:41:00;4.25;;;2.72;;
56075;SDS011;41951;49.022;12.066;2022-09-01T22:43:26;4.05;;;2.80;;
56075;SDS011;41951;49.022;12.066;2022-09-01T22:45:54;5.57;;;3.00;;
56075;SDS011;41951;49.022;12.066;2022-09-01T22:48:21;4.70;;;2.95;;
56075;SDS011;41951;49.022;12.066;2022-09-01T22:53:24;7.55;;;2.60;;
56075;SDS011;41951;49.022;12.066;2022-09-01T22:55:50;5.95;;;2.53;;
56075;SDS011;41951;49.022;12.066;2022-09-01T22:58:16;5.88;;;2.90;;
56075;SDS011;41951;49.022;12.066;2022-09-01T23:00:44;7.35;;;2.95;;
56075;SDS011;41951;49.022;12.066;2022-09-01T23:05:39;4.10;;;2.92;;
56075;SDS011;41951;49.022;12.066;2022-09-01T23:08:06;5.45;;;3.17;;
56075;SDS011;41951;49.022;12.066;2022-09-01T23:10:32;4.68;;;2.88;;
56075;SDS011;41951;49.022;12.066;2022-09-01T23:12:57;5.03;;;2.95;;
56075;SDS011;41951;49.022;12.066;2022-09-01T23:15:23;5.55;;;3.35;;
56075;SDS011;41951;49.022;12.066;2022-09-01T23:17:49;5.45;;;3.20;;
56075;SDS011;41951;49.022;12.066;2022-09-01T23:20:14;6.00;;;3.40;;
56075;SDS011;41951;49.022;12.066;2022-09-01T23:22:40;4.93;;;2.90;;
56075;SDS011;41951;49.022;12.066;2022-09-01T23:25:08;5.43;;;2.78;;
56075;SDS011;41951;49.022;12.066;2022-09-01T23:27:35;5.40;;;3.08;;
56075;SDS011;41951;49.022;12.066;2022-09-01T23:30:00;6.60;;;2.95;;
56075;SDS011;41951;49.022;12.066;2022-09-01T23:32:26;5.25;;;3.28;;
56075;SDS011;41951;49.022;12.066;2022-09-01T23:34:52;5.80;;;3.22;;
56075;SDS011;41951;49.022;12.066;2022-09-01T23:37:17;8.98;;;3.13;;
56075;SDS011;41951;49.022;12.066;2022-09-01T23:39:43;4.88;;;2.83;;
56075;SDS011;41951;49.022;12.066;2022-09-01T23:42:09;3.80;;;2.40;;
56075;SDS011;41951;49.022;12.066;2022-09-01T23:44:34;4.00;;;2.90;;
56075;SDS011;41951;49.022;12.066;2022-09-01T23:47:01;4.75;;;2.50;;
56075;SDS011;41951;49.022;12.066;2022-09-01T23:49:26;3.70;;;2.75;;
56075;SDS011;41951;49.022;12.066;2022-09-01T23:51:53;4.82;;;3.08;;
56075;SDS011;41951;49.022;12.066;2022-09-01T23:54:19;4.03;;;2.83;;
56075;SDS011;41951;49.022;12.066;2022-09-01T23:56:45;4.25;;;2.80;;
56075;SDS011;41951;49.022;12.066;2022-09-01T23:59:11;7.47;;;3.10;;
